sensor_id;sensor_type;location;lat;lon;timestamp;P1;durP1;ratioP1;P2;durP2;ratioP2
69057;SDS011;56128;37.534;-122.308;2023-12-20T00:00:15;11.43;;;2.15;;
69057;SDS011;56128;37.534;-122.308;2023-12-20T00:02:41;12.18;;;1.70;;
69057;SDS011;56128;37.534;-122.308;2023-12-20T00:05:12;10.32;;;1.85;;
69057;SDS011;56128;37.534;-122.308;2023-12-20T00:07:39;12.82;;;1.92;;
69057;SDS011;56128;37.534;-122.308;2023-12-20T00:10:06;15.88;;;2.53;;
69057;SDS011;56128;37.534;-122.308;2023-12-20T00:12:32;9.90;;;2.00;;
69057;SDS011;56128;37.534;-122.308;2023-12-20T00:14:58;9.63;;;1.88;;
69057;SDS011;56128;37.534;-122.308;2023-12-20T00:17:24;8.65;;;1.80;;
69057;SDS011;56128;37.534;-122.308;2023-12-20T00:19:51;11.48;;;2.22;;
69057;SDS011;56128;37.534;-122.308;2023-12-20T00:22:17;6.57;;;1.50;;
69057;SDS011;56128;37.534;-122.308;2023-12-20T00:24:43;7.85;;;2.00;;
69057;SDS011;56128;37.534;-122.308;2023-12-20T00:27:09;13.65;;;1.95;;
69057;SDS011;56128;37.534;-122.308;2023-12-20T00:29:35;11.50;;;2.13;;
69057;SDS011;56128;37.534;-122.308;2023-12-20T00:32:02;11.18;;;1.70;;
69057;SDS011;56128;37.534;-122.308;2023-12-20T00:34:28;9.13;;;1.75;;
69057;SDS011;56128;37.534;-122.308;2023-12-20T00:36:54;13.00;;;2.35;;
69057;SDS011;56128;37.534;-122.308;2023-12-20T00:39:20;10.13;;;1.60;;
69057;SDS011;56128;37.534;-122.308;2023-12-20T00:41:46;7.55;;;1.75;;
69057;SDS011;56128;37.534;-122.308;2023-12-20T00:44:12;12.65;;;1.63;;
69057;SDS011;56128;37.534;-122.308;2023-12-20T00:46:38;9.23;;;1.60;;
69057;SDS011;56128;37.534;-122.308;2023-12-20T00:49:05;7.57;;;1.60;;
69057;SDS011;56128;37.534;-122.308;2023-12-20T00:51:31;10.00;;;2.10;;
69057;SDS011;56128;37.534;-122.308;2023-12-20T00:53:57;9.68;;;2.10;;
69057;SDS011;56128;37.534;-122.308;2023-12-20T00:56:23;14.88;;;2.03;;
69057;SDS011;56128;37.534;-122.308;2023-12-20T00:58:49;12.77;;;1.83;;
69057;SDS011;56128;37.534;-122.308;2023-12-20T01:01:15;12.18;;;2.20;;
69057;SDS011;56128;37.534;-122.308;2023-12-20T01:04:02;12.10;;;2.35;;
69057;SDS011;56128;37.534;-122.308;2023-12-20T01:06:28;12.35;;;2.58;;
69057;SDS011;56128;37.534;-122.308;2023-12-20T01:08:54;11.30;;;2.00;;
69057;SDS011;56128;37.534;-122.308;2023-12-20T01:11:20;10.82;;;1.83;;
69057;SDS011;56128;37.534;-122.308;2023-12-20T01:13:47;16.55;;;2.50;;
69057;SDS011;56128;37.534;-122.308;2023-12-20T01:16:13;6.93;;;1.95;;
69057;SDS011;56128;37.534;-122.308;2023-12-20T01:18:39;12.68;;;2.22;;
69057;SDS011;56128;37.534;-122.308;2023-12-20T01:21:05;13.75;;;2.47;;
69057;SDS011;56128;37.534;-122.308;2023-12-20T01:23:32;10.02;;;1.98;;
69057;SDS011;56128;37.534;-122.308;2023-12-20T01:25:58;11.23;;;2.10;;
69057;SDS011;56128;37.534;-122.308;2023-12-20T01:28:27;8.63;;;1.95;;
69057;SDS011;56128;37.534;-122.308;2023-12-20T01:30:54;9.02;;;2.13;;
69057;SDS011;56128;37.534;-122.308;2023-12-20T01:33:20;16.20;;;2.47;;
69057;SDS011;56128;37.534;-122.308;2023-12-20T01:35:47;9.93;;;2.30;;
69057;SDS011;56128;37.534;-122.308;2023-12-20T01:38:13;13.32;;;2.38;;
69057;SDS011;56128;37.534;-122.308;2023-12-20T01:40:59;10.55;;;2.30;;
69057;SDS011;56128;37.534;-122.308;2023-12-20T01:43:25;9.13;;;2.53;;
69057;SDS011;56128;37.534;-122.308;2023-12-20T01:45:51;8.60;;;2.30;;
69057;SDS011;56128;37.534;-122.308;2023-12-20T01:48:18;11.00;;;2.65;;
69057;SDS011;56128;37.534;-122.308;2023-12-20T01:50:46;11.73;;;2.72;;
69057;SDS011;56128;37.534;-122.308;2023-12-20T01:53:13;12.02;;;2.72;;
69057;SDS011;56128;37.534;-122.308;2023-12-20T01:55:41;12.95;;;2.80;;
69057;SDS011;56128;37.534;-122.308;2023-12-20T01:58:08;12.32;;;3.15;;
69057;SDS011;56128;37.534;-122.308;2023-12-20T02:00:36;9.60;;;2.85;;
69057;SDS011;56128;37.534;-122.308;2023-12-20T02:03:02;13.23;;;2.95;;
69057;SDS011;56128;37.534;-122.308;2023-12-20T02:05:30;12.80;;;3.55;;
69057;SDS011;56128;37.534;-122.308;2023-12-20T02:07:57;10.40;;;2.60;;
69057;SDS011;56128;37.534;-122.308;2023-12-20T02:10:23;12.23;;;2.75;;
69057;SDS011;56128;37.534;-122.308;2023-12-20T02:12:50;10.55;;;3.30;;
69057;SDS011;56128;37.534;-122.308;2023-12-20T02:15:16;11.15;;;3.70;;
69057;SDS011;56128;37.534;-122.308;2023-12-20T02:17:42;10.95;;;2.85;;
69057;SDS011;56128;37.534;-122.308;2023-12-20T02:20:09;15.32;;;3.42;;
69057;SDS011;56128;37.534;-122.308;2023-12-20T02:22:35;14.63;;;2.80;;
69057;SDS011;56128;37.534;-122.308;2023-12-20T02:25:02;13.43;;;3.15;;
69057;SDS011;56128;37.534;-122.308;2023-12-20T02:27:28;8.45;;;3.15;;
69057;SDS011;56128;37.534;-122.308;2023-12-20T02:29:55;8.68;;;3.20;;
69057;SDS011;56128;37.534;-122.308;2023-12-20T02:32:22;14.63;;;3.17;;
69057;SDS011;56128;37.534;-122.308;2023-12-20T02:34:51;11.23;;;3.15;;
69057;SDS011;56128;37.534;-122.308;2023-12-20T02:37:17;8.70;;;3.28;;
69057;SDS011;56128;37.534;-122.308;2023-12-20T02:39:44;15.60;;;3.42;;
69057;SDS011;56128;37.534;-122.308;2023-12-20T02:42:10;10.23;;;3.22;;
69057;SDS011;56128;37.534;-122.308;2023-12-20T02:44:36;16.27;;;3.40;;
69057;SDS011;56128;37.534;-122.308;2023-12-20T02:47:02;11.20;;;2.67;;
69057;SDS011;56128;37.534;-122.308;2023-12-20T02:49:29;14.50;;;3.92;;
69057;SDS011;56128;37.534;-122.308;2023-12-20T02:51:55;16.70;;;4.75;;
69057;SDS011;56128;37.534;-122.308;2023-12-20T02:54:21;17.20;;;4.75;;
69057;SDS011;56128;37.534;-122.308;2023-12-20T02:56:48;10.30;;;3.00;;
69057;SDS011;56128;37.534;-122.308;2023-12-20T02:59:14;13.43;;;2.95;;
69057;SDS011;56128;37.534;-122.308;2023-12-20T03:01:43;16.25;;;5.18;;
69057;SDS011;56128;37.534;-122.308;2023-12-20T03:04:13;14.30;;;4.35;;
69057;SDS011;56128;37.534;-122.308;2023-12-20T03:06:40;14.32;;;5.45;;
69057;SDS011;56128;37.534;-122.308;2023-12-20T03:09:06;12.40;;;4.25;;
69057;SDS011;56128;37.534;-122.308;2023-12-20T03:11:32;14.40;;;4.05;;
69057;SDS011;56128;37.534;-122.308;2023-12-20T03:13:58;10.73;;;3.88;;
69057;SDS011;56128;37.534;-122.308;2023-12-20T03:16:25;15.10;;;3.97;;
69057;SDS011;56128;37.534;-122.308;2023-12-20T03:18:51;12.02;;;3.95;;
69057;SDS011;56128;37.534;-122.308;2023-12-20T03:21:17;12.57;;;4.30;;
69057;SDS011;56128;37.534;-122.308;2023-12-20T03:23:43;16.98;;;4.72;;
69057;SDS011;56128;37.534;-122.308;2023-12-20T03:26:09;15.93;;;4.72;;
69057;SDS011;56128;37.534;-122.308;2023-12-20T03:28:36;15.75;;;4.75;;
69057;SDS011;56128;37.534;-122.308;2023-12-20T03:31:02;15.63;;;3.97;;
69057;SDS011;56128;37.534;-122.308;2023-12-20T03:33:29;19.55;;;3.75;;
69057;SDS011;56128;37.534;-122.308;2023-12-20T03:35:55;16.30;;;3.35;;
69057;SDS011;56128;37.534;-122.308;2023-12-20T03:38:22;7.97;;;3.05;;
69057;SDS011;56128;37.534;-122.308;2023-12-20T03:40:51;11.85;;;3.42;;
69057;SDS011;56128;37.534;-122.308;2023-12-20T03:43:17;9.85;;;2.58;;
69057;SDS011;56128;37.534;-122.308;2023-12-20T03:45:43;10.93;;;2.53;;
69057;SDS011;56128;37.534;-122.308;2023-12-20T03:48:09;11.55;;;3.00;;
69057;SDS011;56128;37.534;-122.308;2023-12-20T03:50:36;10.40;;;3.05;;
69057;SDS011;56128;37.534;-122.308;2023-12-20T03:53:02;11.90;;;3.30;;
69057;SDS011;56128;37.534;-122.308;2023-12-20T03:55:29;11.93;;;4.05;;
69057;SDS011;56128;37.534;-122.308;2023-12-20T03:57:55;12.52;;;3.60;;
69057;SDS011;56128;37.534;-122.308;2023-12-20T04:00:21;14.27;;;3.47;;
69057;SDS011;56128;37.534;-122.308;2023-12-20T04:02:47;10.48;;;3.00;;
69057;SDS011;56128;37.534;-122.308;2023-12-20T04:05:13;11.05;;;3.00;;
69057;SDS011;56128;37.534;-122.308;2023-12-20T04:07:40;11.68;;;3.22;;
69057;SDS011;56128;37.534;-122.308;2023-12-20T04:10:06;8.65;;;2.72;;
69057;SDS011;56128;37.534;-122.308;2023-12-20T04:12:33;7.30;;;2.05;;
69057;SDS011;56128;37.534;-122.308;2023-12-20T04:14:59;9.30;;;2.20;;
69057;SDS011;56128;37.534;-122.308;2023-12-20T04:17:45;9.10;;;2.40;;
69057;SDS011;56128;37.534;-122.308;2023-12-20T04:20:12;9.60;;;2.17;;
69057;SDS011;56128;37.534;-122.308;2023-12-20T04:22:38;9.63;;;2.10;;
69057;SDS011;56128;37.534;-122.308;2023-12-20T04:25:04;10.82;;;2.30;;
69057;SDS011;56128;37.534;-122.308;2023-12-20T04:27:31;6.30;;;2.30;;
69057;SDS011;56128;37.534;-122.308;2023-12-20T04:29:57;8.65;;;2.20;;
69057;SDS011;56128;37.534;-122.308;2023-12-20T04:32:23;7.60;;;2.45;;
69057;SDS011;56128;37.534;-122.308;2023-12-20T04:34:49;7.25;;;2.72;;
69057;SDS011;56128;37.534;-122.308;2023-12-20T04:37:15;7.30;;;2.38;;
69057;SDS011;56128;37.534;-122.308;2023-12-20T04:39:42;8.18;;;2.22;;
69057;SDS011;56128;37.534;-122.308;2023-12-20T04:42:08;10.57;;;2.20;;
69057;SDS011;56128;37.534;-122.308;2023-12-20T04:44:34;9.20;;;2.20;;
69057;SDS011;56128;37.534;-122.308;2023-12-20T04:47:00;8.88;;;2.42;;
69057;SDS011;56128;37.534;-122.308;2023-12-20T04:49:26;5.70;;;1.65;;
69057;SDS011;56128;37.534;-122.308;2023-12-20T04:51:53;4.72;;;1.55;;
69057;SDS011;56128;37.534;-122.308;2023-12-20T04:54:19;3.10;;;1.30;;
69057;SDS011;56128;37.534;-122.308;2023-12-20T04:56:45;6.43;;;1.42;;
69057;SDS011;56128;37.534;-122.308;2023-12-20T04:59:11;5.82;;;1.50;;
69057;SDS011;56128;37.534;-122.308;2023-12-20T05:01:38;8.52;;;1.65;;
69057;SDS011;56128;37.534;-122.308;2023-12-20T05:04:04;6.78;;;1.95;;
69057;SDS011;56128;37.534;-122.308;2023-12-20T05:06:31;4.43;;;1.70;;
69057;SDS011;56128;37.534;-122.308;2023-12-20T05:08:57;5.05;;;1.27;;
69057;SDS011;56128;37.534;-122.308;2023-12-20T05:11:43;7.65;;;1.73;;
69057;SDS011;56128;37.534;-122.308;2023-12-20T05:14:12;12.57;;;1.80;;
69057;SDS011;56128;37.534;-122.308;2023-12-20T05:16:38;4.53;;;1.60;;
69057;SDS011;56128;37.534;-122.308;2023-12-20T05:19:04;3.83;;;1.38;;
69057;SDS011;56128;37.534;-122.308;2023-12-20T05:21:32;4.75;;;1.60;;
69057;SDS011;56128;37.534;-122.308;2023-12-20T05:23:58;4.38;;;1.80;;
69057;SDS011;56128;37.534;-122.308;2023-12-20T05:26:26;4.35;;;1.75;;
69057;SDS011;56128;37.534;-122.308;2023-12-20T05:28:52;5.38;;;2.00;;
69057;SDS011;56128;37.534;-122.308;2023-12-20T05:31:18;6.50;;;1.75;;
69057;SDS011;56128;37.534;-122.308;2023-12-20T05:33:44;9.05;;;1.60;;
69057;SDS011;56128;37.534;-122.308;2023-12-20T05:36:12;5.65;;;1.42;;
69057;SDS011;56128;37.534;-122.308;2023-12-20T05:38:40;5.90;;;1.73;;
69057;SDS011;56128;37.534;-122.308;2023-12-20T05:41:06;4.75;;;2.03;;
69057;SDS011;56128;37.534;-122.308;2023-12-20T05:43:32;4.88;;;2.53;;
69057;SDS011;56128;37.534;-122.308;2023-12-20T05:45:59;5.93;;;2.05;;
69057;SDS011;56128;37.534;-122.308;2023-12-20T05:48:25;7.80;;;1.67;;
69057;SDS011;56128;37.534;-122.308;2023-12-20T05:50:51;6.30;;;2.00;;
69057;SDS011;56128;37.534;-122.308;2023-12-20T05:53:17;7.90;;;2.00;;
69057;SDS011;56128;37.534;-122.308;2023-12-20T05:55:43;4.75;;;1.80;;
69057;SDS011;56128;37.534;-122.308;2023-12-20T05:58:10;6.30;;;2.05;;
69057;SDS011;56128;37.534;-122.308;2023-12-20T06:00:36;4.55;;;1.77;;
69057;SDS011;56128;37.534;-122.308;2023-12-20T06:03:02;4.20;;;1.60;;
69057;SDS011;56128;37.534;-122.308;2023-12-20T06:05:30;8.77;;;2.10;;
69057;SDS011;56128;37.534;-122.308;2023-12-20T06:07:56;6.63;;;2.20;;
69057;SDS011;56128;37.534;-122.308;2023-12-20T06:10:26;5.10;;;1.80;;
69057;SDS011;56128;37.534;-122.308;2023-12-20T06:12:53;7.78;;;2.20;;
69057;SDS011;56128;37.534;-122.308;2023-12-20T06:15:19;5.50;;;2.10;;
69057;SDS011;56128;37.534;-122.308;2023-12-20T06:17:45;7.00;;;2.10;;
69057;SDS011;56128;37.534;-122.308;2023-12-20T06:20:12;9.07;;;2.58;;
69057;SDS011;56128;37.534;-122.308;2023-12-20T06:22:38;6.18;;;1.80;;
69057;SDS011;56128;37.534;-122.308;2023-12-20T06:25:04;4.70;;;1.20;;
69057;SDS011;56128;37.534;-122.308;2023-12-20T06:27:32;5.00;;;1.40;;
69057;SDS011;56128;37.534;-122.308;2023-12-20T06:29:58;6.50;;;2.03;;
69057;SDS011;56128;37.534;-122.308;2023-12-20T06:32:24;3.60;;;1.60;;
69057;SDS011;56128;37.534;-122.308;2023-12-20T06:34:50;5.18;;;1.67;;
69057;SDS011;56128;37.534;-122.308;2023-12-20T06:37:17;4.50;;;1.30;;
69057;SDS011;56128;37.534;-122.308;2023-12-20T06:39:43;7.95;;;1.50;;
69057;SDS011;56128;37.534;-122.308;2023-12-20T06:42:09;4.22;;;1.40;;
69057;SDS011;56128;37.534;-122.308;2023-12-20T06:44:35;4.35;;;1.00;;
69057;SDS011;56128;37.534;-122.308;2023-12-20T06:47:02;4.70;;;1.00;;
69057;SDS011;56128;37.534;-122.308;2023-12-20T06:49:28;3.85;;;1.20;;
69057;SDS011;56128;37.534;-122.308;2023-12-20T06:51:54;3.22;;;1.35;;
69057;SDS011;56128;37.534;-122.308;2023-12-20T06:54:20;5.63;;;1.50;;
69057;SDS011;56128;37.534;-122.308;2023-12-20T06:56:46;3.17;;;1.27;;
69057;SDS011;56128;37.534;-122.308;2023-12-20T06:59:12;5.97;;;1.60;;
69057;SDS011;56128;37.534;-122.308;2023-12-20T07:01:39;8.93;;;1.55;;
69057;SDS011;56128;37.534;-122.308;2023-12-20T07:04:05;6.28;;;1.38;;
69057;SDS011;56128;37.534;-122.308;2023-12-20T07:06:31;5.63;;;1.90;;
69057;SDS011;56128;37.534;-122.308;2023-12-20T07:08:57;5.63;;;1.58;;
69057;SDS011;56128;37.534;-122.308;2023-12-20T07:11:23;4.55;;;1.95;;
69057;SDS011;56128;37.534;-122.308;2023-12-20T07:13:50;4.15;;;1.90;;
69057;SDS011;56128;37.534;-122.308;2023-12-20T07:16:16;6.72;;;1.65;;
69057;SDS011;56128;37.534;-122.308;2023-12-20T07:18:42;5.43;;;1.48;;
69057;SDS011;56128;37.534;-122.308;2023-12-20T07:21:26;3.00;;;0.98;;
69057;SDS011;56128;37.534;-122.308;2023-12-20T07:23:53;3.22;;;0.90;;
69057;SDS011;56128;37.534;-122.308;2023-12-20T07:26:19;3.72;;;1.25;;
69057;SDS011;56128;37.534;-122.308;2023-12-20T07:28:46;3.90;;;1.35;;
69057;SDS011;56128;37.534;-122.308;2023-12-20T07:31:12;5.20;;;1.23;;
69057;SDS011;56128;37.534;-122.308;2023-12-20T07:33:40;3.95;;;1.13;;
69057;SDS011;56128;37.534;-122.308;2023-12-20T07:36:06;3.38;;;1.10;;
69057;SDS011;56128;37.534;-122.308;2023-12-20T07:38:33;5.28;;;1.60;;
69057;SDS011;56128;37.534;-122.308;2023-12-20T07:41:00;4.18;;;1.00;;
69057;SDS011;56128;37.534;-122.308;2023-12-20T07:43:26;3.45;;;1.17;;
69057;SDS011;56128;37.534;-122.308;2023-12-20T07:45:52;5.00;;;1.00;;
69057;SDS011;56128;37.534;-122.308;2023-12-20T07:48:18;5.07;;;1.20;;
69057;SDS011;56128;37.534;-122.308;2023-12-20T07:50:44;3.65;;;1.10;;
69057;SDS011;56128;37.534;-122.308;2023-12-20T07:53:10;2.63;;;1.00;;
69057;SDS011;56128;37.534;-122.308;2023-12-20T07:55:36;6.65;;;1.52;;
69057;SDS011;56128;37.534;-122.308;2023-12-20T07:58:02;6.60;;;1.40;;
69057;SDS011;56128;37.534;-122.308;2023-12-20T08:00:30;4.47;;;1.40;;
69057;SDS011;56128;37.534;-122.308;2023-12-20T08:02:56;6.03;;;1.30;;
69057;SDS011;56128;37.534;-122.308;2023-12-20T08:05:22;5.85;;;1.73;;
69057;SDS011;56128;37.534;-122.308;2023-12-20T08:07:48;10.48;;;2.72;;
69057;SDS011;56128;37.534;-122.308;2023-12-20T08:10:14;7.00;;;2.10;;
69057;SDS011;56128;37.534;-122.308;2023-12-20T08:12:41;7.85;;;1.85;;
69057;SDS011;56128;37.534;-122.308;2023-12-20T08:15:07;7.05;;;2.22;;
69057;SDS011;56128;37.534;-122.308;2023-12-20T08:17:33;7.25;;;2.13;;
69057;SDS011;56128;37.534;-122.308;2023-12-20T08:19:59;7.65;;;2.10;;
69057;SDS011;56128;37.534;-122.308;2023-12-20T08:22:26;9.23;;;2.00;;
69057;SDS011;56128;37.534;-122.308;2023-12-20T08:24:52;6.15;;;1.67;;
69057;SDS011;56128;37.534;-122.308;2023-12-20T08:27:18;8.60;;;1.80;;
69057;SDS011;56128;37.534;-122.308;2023-12-20T08:29:44;3.03;;;1.52;;
69057;SDS011;56128;37.534;-122.308;2023-12-20T08:32:11;8.27;;;1.58;;
69057;SDS011;56128;37.534;-122.308;2023-12-20T08:34:37;5.00;;;1.75;;
69057;SDS011;56128;37.534;-122.308;2023-12-20T08:37:03;8.23;;;1.83;;
69057;SDS011;56128;37.534;-122.308;2023-12-20T08:39:29;4.32;;;1.60;;
69057;SDS011;56128;37.534;-122.308;2023-12-20T08:41:55;7.40;;;1.55;;
69057;SDS011;56128;37.534;-122.308;2023-12-20T08:44:21;3.78;;;1.30;;
69057;SDS011;56128;37.534;-122.308;2023-12-20T08:46:48;4.78;;;1.35;;
69057;SDS011;56128;37.534;-122.308;2023-12-20T08:49:14;4.60;;;1.42;;
69057;SDS011;56128;37.534;-122.308;2023-12-20T08:51:40;5.18;;;1.40;;
69057;SDS011;56128;37.534;-122.308;2023-12-20T08:54:07;4.80;;;1.40;;
69057;SDS011;56128;37.534;-122.308;2023-12-20T08:56:33;3.15;;;1.40;;
69057;SDS011;56128;37.534;-122.308;2023-12-20T08:59:00;6.43;;;1.20;;
69057;SDS011;56128;37.534;-122.308;2023-12-20T09:01:26;6.55;;;1.60;;
69057;SDS011;56128;37.534;-122.308;2023-12-20T09:03:52;6.72;;;1.63;;
69057;SDS011;56128;37.534;-122.308;2023-12-20T09:06:18;4.40;;;1.35;;
69057;SDS011;56128;37.534;-122.308;2023-12-20T09:08:44;4.90;;;1.48;;
69057;SDS011;56128;37.534;-122.308;2023-12-20T09:11:10;5.57;;;1.50;;
69057;SDS011;56128;37.534;-122.308;2023-12-20T09:13:36;6.00;;;1.50;;
69057;SDS011;56128;37.534;-122.308;2023-12-20T09:16:04;6.63;;;1.65;;
69057;SDS011;56128;37.534;-122.308;2023-12-20T09:18:30;6.40;;;1.80;;
69057;SDS011;56128;37.534;-122.308;2023-12-20T09:20:56;6.40;;;1.90;;
69057;SDS011;56128;37.534;-122.308;2023-12-20T09:23:22;8.77;;;1.70;;
69057;SDS011;56128;37.534;-122.308;2023-12-20T09:25:48;6.68;;;2.00;;
69057;SDS011;56128;37.534;-122.308;2023-12-20T09:28:14;6.13;;;1.90;;
69057;SDS011;56128;37.534;-122.308;2023-12-20T09:30:41;5.40;;;1.70;;
69057;SDS011;56128;37.534;-122.308;2023-12-20T09:33:10;8.43;;;1.88;;
69057;SDS011;56128;37.534;-122.308;2023-12-20T09:35:36;9.35;;;1.77;;
69057;SDS011;56128;37.534;-122.308;2023-12-20T09:38:02;5.68;;;1.55;;
69057;SDS011;56128;37.534;-122.308;2023-12-20T09:40:28;8.13;;;1.70;;
69057;SDS011;56128;37.534;-122.308;2023-12-20T09:42:58;10.57;;;2.10;;
69057;SDS011;56128;37.534;-122.308;2023-12-20T09:45:29;4.72;;;1.60;;
69057;SDS011;56128;37.534;-122.308;2023-12-20T09:47:57;8.30;;;1.70;;
69057;SDS011;56128;37.534;-122.308;2023-12-20T09:50:24;9.52;;;1.80;;
69057;SDS011;56128;37.534;-122.308;2023-12-20T09:52:51;4.43;;;1.60;;
69057;SDS011;56128;37.534;-122.308;2023-12-20T09:55:18;5.35;;;1.80;;
69057;SDS011;56128;37.534;-122.308;2023-12-20T09:57:48;9.25;;;2.17;;
69057;SDS011;56128;37.534;-122.308;2023-12-20T10:00:15;12.80;;;2.38;;
69057;SDS011;56128;37.534;-122.308;2023-12-20T10:02:45;7.22;;;1.95;;
69057;SDS011;56128;37.534;-122.308;2023-12-20T10:05:31;6.45;;;1.70;;
69057;SDS011;56128;37.534;-122.308;2023-12-20T10:07:58;7.05;;;1.80;;
69057;SDS011;56128;37.534;-122.308;2023-12-20T10:10:25;4.80;;;1.80;;
69057;SDS011;56128;37.534;-122.308;2023-12-20T10:13:04;7.20;;;1.80;;
69057;SDS011;56128;37.534;-122.308;2023-12-20T10:15:33;5.30;;;1.60;;
69057;SDS011;56128;37.534;-122.308;2023-12-20T10:18:00;7.68;;;1.85;;
69057;SDS011;56128;37.534;-122.308;2023-12-20T10:20:27;4.68;;;1.60;;
69057;SDS011;56128;37.534;-122.308;2023-12-20T10:22:59;7.55;;;1.73;;
69057;SDS011;56128;37.534;-122.308;2023-12-20T10:25:26;4.25;;;1.63;;
69057;SDS011;56128;37.534;-122.308;2023-12-20T10:30:59;4.88;;;1.50;;
69057;SDS011;56128;37.534;-122.308;2023-12-20T10:33:26;7.85;;;2.00;;
69057;SDS011;56128;37.534;-122.308;2023-12-20T10:36:00;5.88;;;1.45;;
69057;SDS011;56128;37.534;-122.308;2023-12-20T10:38:26;5.22;;;1.73;;
69057;SDS011;56128;37.534;-122.308;2023-12-20T10:40:54;6.70;;;1.90;;
69057;SDS011;56128;37.534;-122.308;2023-12-20T10:43:24;6.88;;;1.73;;
69057;SDS011;56128;37.534;-122.308;2023-12-20T10:45:54;5.82;;;1.50;;
69057;SDS011;56128;37.534;-122.308;2023-12-20T10:48:20;5.68;;;1.92;;
69057;SDS011;56128;37.534;-122.308;2023-12-20T10:50:52;5.15;;;1.50;;
69057;SDS011;56128;37.534;-122.308;2023-12-20T10:53:20;7.25;;;1.42;;
69057;SDS011;56128;37.534;-122.308;2023-12-20T10:55:47;6.10;;;1.80;;
69057;SDS011;56128;37.534;-122.308;2023-12-20T10:58:16;5.82;;;1.67;;
69057;SDS011;56128;37.534;-122.308;2023-12-20T11:00:45;8.63;;;1.80;;
69057;SDS011;56128;37.534;-122.308;2023-12-20T11:03:15;6.75;;;1.67;;
69057;SDS011;56128;37.534;-122.308;2023-12-20T11:05:44;4.82;;;1.80;;
69057;SDS011;56128;37.534;-122.308;2023-12-20T11:10:58;4.75;;;1.50;;
69057;SDS011;56128;37.534;-122.308;2023-12-20T11:13:36;5.65;;;1.67;;
69057;SDS011;56128;37.534;-122.308;2023-12-20T11:16:09;5.68;;;2.17;;
69057;SDS011;56128;37.534;-122.308;2023-12-20T11:18:36;12.68;;;1.70;;
69057;SDS011;56128;37.534;-122.308;2023-12-20T11:21:02;8.68;;;1.70;;
69057;SDS011;56128;37.534;-122.308;2023-12-20T11:23:31;5.28;;;1.73;;
69057;SDS011;56128;37.534;-122.308;2023-12-20T11:26:01;4.95;;;1.60;;
69057;SDS011;56128;37.534;-122.308;2023-12-20T11:28:28;7.10;;;1.55;;
69057;SDS011;56128;37.534;-122.308;2023-12-20T11:30:58;4.97;;;1.50;;
69057;SDS011;56128;37.534;-122.308;2023-12-20T11:36:14;10.05;;;1.83;;
69057;SDS011;56128;37.534;-122.308;2023-12-20T11:38:56;5.70;;;1.60;;
69057;SDS011;56128;37.534;-122.308;2023-12-20T11:41:23;3.30;;;1.63;;
69057;SDS011;56128;37.534;-122.308;2023-12-20T11:43:51;7.30;;;1.73;;
69057;SDS011;56128;37.534;-122.308;2023-12-20T11:46:19;5.10;;;1.77;;
69057;SDS011;56128;37.534;-122.308;2023-12-20T11:48:46;8.13;;;1.83;;
69057;SDS011;56128;37.534;-122.308;2023-12-20T11:51:13;7.53;;;2.05;;
69057;SDS011;56128;37.534;-122.308;2023-12-20T11:53:40;8.23;;;2.00;;
69057;SDS011;56128;37.534;-122.308;2023-12-20T11:56:08;3.75;;;1.63;;
69057;SDS011;56128;37.534;-122.308;2023-12-20T11:58:34;8.90;;;2.05;;
69057;SDS011;56128;37.534;-122.308;2023-12-20T12:01:02;5.55;;;1.95;;
69057;SDS011;56128;37.534;-122.308;2023-12-20T12:03:29;6.45;;;2.00;;
69057;SDS011;56128;37.534;-122.308;2023-12-20T12:05:56;14.27;;;1.70;;
69057;SDS011;56128;37.534;-122.308;2023-12-20T12:08:22;4.15;;;1.65;;
69057;SDS011;56128;37.534;-122.308;2023-12-20T12:10:49;7.95;;;1.90;;
69057;SDS011;56128;37.534;-122.308;2023-12-20T12:13:15;7.40;;;1.75;;
69057;SDS011;56128;37.534;-122.308;2023-12-20T12:15:42;9.02;;;1.90;;
69057;SDS011;56128;37.534;-122.308;2023-12-20T12:18:08;5.03;;;1.67;;
69057;SDS011;56128;37.534;-122.308;2023-12-20T12:20:35;6.07;;;1.50;;
69057;SDS011;56128;37.534;-122.308;2023-12-20T12:23:02;11.27;;;1.50;;
69057;SDS011;56128;37.534;-122.308;2023-12-20T12:25:30;3.38;;;1.40;;
69057;SDS011;56128;37.534;-122.308;2023-12-20T12:28:00;6.78;;;1.30;;
69057;SDS011;56128;37.534;-122.308;2023-12-20T12:30:27;6.55;;;1.70;;
69057;SDS011;56128;37.534;-122.308;2023-12-20T12:32:54;5.18;;;1.30;;
69057;SDS011;56128;37.534;-122.308;2023-12-20T12:35:22;3.80;;;1.35;;
69057;SDS011;56128;37.534;-122.308;2023-12-20T12:37:48;7.18;;;1.40;;
69057;SDS011;56128;37.534;-122.308;2023-12-20T12:40:15;5.50;;;1.00;;
69057;SDS011;56128;37.534;-122.308;2023-12-20T12:42:43;6.45;;;1.25;;
69057;SDS011;56128;37.534;-122.308;2023-12-20T12:45:10;1.73;;;0.77;;
69057;SDS011;56128;37.534;-122.308;2023-12-20T12:47:37;5.13;;;0.98;;
69057;SDS011;56128;37.534;-122.308;2023-12-20T12:50:03;3.20;;;0.90;;
69057;SDS011;56128;37.534;-122.308;2023-12-20T12:52:30;4.30;;;0.75;;
69057;SDS011;56128;37.534;-122.308;2023-12-20T12:54:57;2.60;;;0.82;;
69057;SDS011;56128;37.534;-122.308;2023-12-20T12:57:23;1.85;;;0.82;;
69057;SDS011;56128;37.534;-122.308;2023-12-20T12:59:49;3.85;;;0.80;;
69057;SDS011;56128;37.534;-122.308;2023-12-20T13:02:15;2.97;;;0.98;;
69057;SDS011;56128;37.534;-122.308;2023-12-20T13:04:42;5.80;;;0.98;;
69057;SDS011;56128;37.534;-122.308;2023-12-20T13:07:09;5.43;;;1.40;;
69057;SDS011;56128;37.534;-122.308;2023-12-20T13:09:38;2.47;;;0.88;;
69057;SDS011;56128;37.534;-122.308;2023-12-20T13:12:05;4.35;;;0.77;;
69057;SDS011;56128;37.534;-122.308;2023-12-20T13:14:32;3.65;;;1.00;;
69057;SDS011;56128;37.534;-122.308;2023-12-20T13:17:00;3.42;;;1.33;;
69057;SDS011;56128;37.534;-122.308;2023-12-20T13:19:27;2.92;;;1.00;;
69057;SDS011;56128;37.534;-122.308;2023-12-20T13:21:53;4.50;;;1.10;;
69057;SDS011;56128;37.534;-122.308;2023-12-20T13:24:19;5.30;;;1.13;;
69057;SDS011;56128;37.534;-122.308;2023-12-20T13:26:46;2.55;;;1.30;;
69057;SDS011;56128;37.534;-122.308;2023-12-20T13:29:12;5.57;;;1.35;;
69057;SDS011;56128;37.534;-122.308;2023-12-20T13:31:38;4.65;;;1.30;;
69057;SDS011;56128;37.534;-122.308;2023-12-20T13:34:06;3.10;;;1.08;;
69057;SDS011;56128;37.534;-122.308;2023-12-20T13:36:32;2.47;;;1.05;;
69057;SDS011;56128;37.534;-122.308;2023-12-20T13:38:59;6.93;;;1.30;;
69057;SDS011;56128;37.534;-122.308;2023-12-20T13:41:25;8.77;;;1.60;;
69057;SDS011;56128;37.534;-122.308;2023-12-20T13:43:51;14.77;;;1.98;;
69057;SDS011;56128;37.534;-122.308;2023-12-20T13:46:18;6.18;;;1.20;;
69057;SDS011;56128;37.534;-122.308;2023-12-20T13:48:44;7.20;;;1.40;;
69057;SDS011;56128;37.534;-122.308;2023-12-20T13:51:10;5.38;;;1.30;;
69057;SDS011;56128;37.534;-122.308;2023-12-20T13:53:37;6.13;;;1.42;;
69057;SDS011;56128;37.534;-122.308;2023-12-20T13:56:04;7.72;;;1.60;;
69057;SDS011;56128;37.534;-122.308;2023-12-20T13:58:30;5.93;;;1.80;;
69057;SDS011;56128;37.534;-122.308;2023-12-20T14:00:56;5.93;;;2.20;;
69057;SDS011;56128;37.534;-122.308;2023-12-20T14:03:23;5.22;;;2.10;;
69057;SDS011;56128;37.534;-122.308;2023-12-20T14:05:49;9.60;;;2.35;;
69057;SDS011;56128;37.534;-122.308;2023-12-20T14:08:15;7.43;;;2.00;;
69057;SDS011;56128;37.534;-122.308;2023-12-20T14:10:41;9.55;;;2.10;;
69057;SDS011;56128;37.534;-122.308;2023-12-20T14:13:07;7.15;;;2.40;;